sensor_id;sensor_type;location;lat;lon;timestamp;P1;durP1;ratioP1;P2;durP2;ratioP2
20743;SDS011;56303;52.160;-0.428;2023-06-22T00:01:20;11.27;;;8.67;;
20743;SDS011;56303;52.160;-0.428;2023-06-22T00:03:49;10.30;;;7.63;;
20743;SDS011;56303;52.160;-0.428;2023-06-22T00:06:16;12.23;;;8.57;;
20743;SDS011;56303;52.160;-0.428;2023-06-22T00:08:43;13.70;;;8.93;;
20743;SDS011;56303;52.160;-0.428;2023-06-22T00:11:10;11.13;;;9.03;;
20743;SDS011;56303;52.160;-0.428;2023-06-22T00:13:38;10.87;;;8.30;;
20743;SDS011;56303;52.160;-0.428;2023-06-22T00:16:05;10.13;;;8.17;;
20743;SDS011;56303;52.160;-0.428;2023-06-22T00:18:32;11.47;;;8.47;;
20743;SDS011;56303;52.160;-0.428;2023-06-22T00:20:59;8.97;;;7.23;;
20743;SDS011;56303;52.160;-0.428;2023-06-22T00:23:26;9.73;;;7.63;;
20743;SDS011;56303;52.160;-0.428;2023-06-22T00:25:53;10.20;;;7.80;;
20743;SDS011;56303;52.160;-0.428;2023-06-22T00:28:20;13.13;;;9.00;;
20743;SDS011;56303;52.160;-0.428;2023-06-22T00:30:48;11.40;;;8.83;;
20743;SDS011;56303;52.160;-0.428;2023-06-22T00:33:16;9.33;;;8.30;;
20743;SDS011;56303;52.160;-0.428;2023-06-22T00:35:43;9.50;;;8.10;;
20743;SDS011;56303;52.160;-0.428;2023-06-22T00:38:10;8.17;;;7.30;;
20743;SDS011;56303;52.160;-0.428;2023-06-22T00:40:37;8.27;;;6.83;;
20743;SDS011;56303;52.160;-0.428;2023-06-22T00:43:04;10.00;;;7.63;;
20743;SDS011;56303;52.160;-0.428;2023-06-22T00:45:32;7.93;;;6.90;;
20743;SDS011;56303;52.160;-0.428;2023-06-22T00:47:59;9.20;;;6.67;;
20743;SDS011;56303;52.160;-0.428;2023-06-22T00:50:29;10.43;;;7.17;;
20743;SDS011;56303;52.160;-0.428;2023-06-22T00:53:03;8.40;;;6.77;;
20743;SDS011;56303;52.160;-0.428;2023-06-22T00:55:36;9.77;;;7.27;;
20743;SDS011;56303;52.160;-0.428;2023-06-22T00:58:08;7.40;;;6.07;;
20743;SDS011;56303;52.160;-0.428;2023-06-22T01:00:37;8.67;;;6.97;;
20743;SDS011;56303;52.160;-0.428;2023-06-22T01:03:05;9.73;;;7.53;;
20743;SDS011;56303;52.160;-0.428;2023-06-22T01:05:36;10.03;;;7.53;;
20743;SDS011;56303;52.160;-0.428;2023-06-22T01:08:29;8.23;;;7.33;;
20743;SDS011;56303;52.160;-0.428;2023-06-22T01:11:54;8.37;;;6.63;;
20743;SDS011;56303;52.160;-0.428;2023-06-22T01:16:50;9.03;;;6.47;;
20743;SDS011;56303;52.160;-0.428;2023-06-22T01:22:02;8.47;;;6.63;;
20743;SDS011;56303;52.160;-0.428;2023-06-22T01:24:37;9.90;;;7.03;;
20743;SDS011;56303;52.160;-0.428;2023-06-22T01:29:51;8.07;;;7.00;;
20743;SDS011;56303;52.160;-0.428;2023-06-22T01:32:25;7.97;;;7.00;;
20743;SDS011;56303;52.160;-0.428;2023-06-22T01:35:00;7.77;;;6.87;;
20743;SDS011;56303;52.160;-0.428;2023-06-22T01:37:28;9.90;;;6.70;;
20743;SDS011;56303;52.160;-0.428;2023-06-22T01:39:58;8.23;;;6.30;;
20743;SDS011;56303;52.160;-0.428;2023-06-22T01:42:26;9.97;;;6.80;;
20743;SDS011;56303;52.160;-0.428;2023-06-22T01:44:53;8.90;;;6.90;;
20743;SDS011;56303;52.160;-0.428;2023-06-22T01:47:21;9.20;;;6.60;;
20743;SDS011;56303;52.160;-0.428;2023-06-22T01:49:49;9.17;;;6.73;;
20743;SDS011;56303;52.160;-0.428;2023-06-22T01:52:18;10.37;;;7.10;;
20743;SDS011;56303;52.160;-0.428;2023-06-22T01:54:47;6.93;;;5.80;;
20743;SDS011;56303;52.160;-0.428;2023-06-22T01:57:15;10.70;;;7.43;;
20743;SDS011;56303;52.160;-0.428;2023-06-22T02:02:12;9.60;;;7.40;;
20743;SDS011;56303;52.160;-0.428;2023-06-22T02:07:41;6.37;;;5.20;;
20743;SDS011;56303;52.160;-0.428;2023-06-22T02:10:14;7.27;;;5.77;;
20743;SDS011;56303;52.160;-0.428;2023-06-22T02:12:43;6.60;;;5.10;;
20743;SDS011;56303;52.160;-0.428;2023-06-22T02:15:11;8.67;;;6.13;;
20743;SDS011;56303;52.160;-0.428;2023-06-22T02:17:39;7.90;;;6.57;;
20743;SDS011;56303;52.160;-0.428;2023-06-22T02:20:12;10.33;;;7.23;;
20743;SDS011;56303;52.160;-0.428;2023-06-22T02:22:40;11.43;;;7.83;;
20743;SDS011;56303;52.160;-0.428;2023-06-22T02:25:07;8.17;;;6.60;;
20743;SDS011;56303;52.160;-0.428;2023-06-22T02:27:34;16.07;;;7.40;;
20743;SDS011;56303;52.160;-0.428;2023-06-22T02:30:01;9.60;;;6.83;;
20743;SDS011;56303;52.160;-0.428;2023-06-22T02:32:28;10.60;;;7.97;;
20743;SDS011;56303;52.160;-0.428;2023-06-22T02:34:55;8.83;;;6.87;;
20743;SDS011;56303;52.160;-0.428;2023-06-22T02:37:22;9.10;;;6.27;;
20743;SDS011;56303;52.160;-0.428;2023-06-22T02:39:51;9.97;;;5.77;;
20743;SDS011;56303;52.160;-0.428;2023-06-22T02:42:18;12.07;;;6.60;;
20743;SDS011;56303;52.160;-0.428;2023-06-22T02:44:47;10.83;;;6.33;;
20743;SDS011;56303;52.160;-0.428;2023-06-22T02:47:15;10.30;;;6.67;;
20743;SDS011;56303;52.160;-0.428;2023-06-22T02:49:41;9.97;;;7.10;;
20743;SDS011;56303;52.160;-0.428;2023-06-22T02:52:11;11.53;;;6.90;;
20743;SDS011;56303;52.160;-0.428;2023-06-22T02:54:38;9.17;;;6.23;;
20743;SDS011;56303;52.160;-0.428;2023-06-22T02:57:04;9.70;;;6.33;;
20743;SDS011;56303;52.160;-0.428;2023-06-22T02:59:31;8.53;;;6.43;;
20743;SDS011;56303;52.160;-0.428;2023-06-22T03:01:59;8.57;;;7.50;;
20743;SDS011;56303;52.160;-0.428;2023-06-22T03:04:26;8.83;;;7.40;;
20743;SDS011;56303;52.160;-0.428;2023-06-22T03:06:54;8.93;;;6.53;;
20743;SDS011;56303;52.160;-0.428;2023-06-22T03:09:20;11.13;;;7.03;;
20743;SDS011;56303;52.160;-0.428;2023-06-22T03:11:47;10.40;;;7.37;;
20743;SDS011;56303;52.160;-0.428;2023-06-22T03:14:14;11.27;;;7.90;;
20743;SDS011;56303;52.160;-0.428;2023-06-22T03:16:41;9.73;;;8.00;;
20743;SDS011;56303;52.160;-0.428;2023-06-22T03:19:08;8.80;;;6.33;;
20743;SDS011;56303;52.160;-0.428;2023-06-22T03:21:35;10.07;;;7.33;;
20743;SDS011;56303;52.160;-0.428;2023-06-22T03:24:05;8.57;;;6.33;;
20743;SDS011;56303;52.160;-0.428;2023-06-22T03:26:34;7.57;;;6.10;;
20743;SDS011;56303;52.160;-0.428;2023-06-22T03:29:01;8.97;;;6.20;;
20743;SDS011;56303;52.160;-0.428;2023-06-22T03:31:28;10.37;;;6.33;;
20743;SDS011;56303;52.160;-0.428;2023-06-22T03:33:55;8.33;;;6.43;;
20743;SDS011;56303;52.160;-0.428;2023-06-22T03:36:22;10.67;;;6.50;;
20743;SDS011;56303;52.160;-0.428;2023-06-22T03:38:49;10.20;;;7.83;;
20743;SDS011;56303;52.160;-0.428;2023-06-22T03:41:16;9.20;;;7.00;;
20743;SDS011;56303;52.160;-0.428;2023-06-22T03:43:43;10.63;;;6.77;;
20743;SDS011;56303;52.160;-0.428;2023-06-22T03:46:10;8.73;;;6.83;;
20743;SDS011;56303;52.160;-0.428;2023-06-22T03:48:37;9.30;;;7.53;;
20743;SDS011;56303;52.160;-0.428;2023-06-22T03:51:04;12.83;;;8.27;;
20743;SDS011;56303;52.160;-0.428;2023-06-22T03:53:32;9.73;;;7.63;;
20743;SDS011;56303;52.160;-0.428;2023-06-22T03:55:58;12.90;;;7.63;;
20743;SDS011;56303;52.160;-0.428;2023-06-22T03:58:26;9.80;;;6.70;;
20743;SDS011;56303;52.160;-0.428;2023-06-22T04:00:53;9.90;;;6.83;;
20743;SDS011;56303;52.160;-0.428;2023-06-22T04:03:20;8.70;;;6.87;;
20743;SDS011;56303;52.160;-0.428;2023-06-22T04:05:47;13.67;;;8.00;;
20743;SDS011;56303;52.160;-0.428;2023-06-22T04:08:15;9.50;;;6.97;;
20743;SDS011;56303;52.160;-0.428;2023-06-22T04:10:42;8.47;;;5.90;;
20743;SDS011;56303;52.160;-0.428;2023-06-22T04:13:09;10.73;;;6.73;;
20743;SDS011;56303;52.160;-0.428;2023-06-22T04:15:36;9.47;;;6.47;;
20743;SDS011;56303;52.160;-0.428;2023-06-22T04:18:03;10.13;;;7.53;;
20743;SDS011;56303;52.160;-0.428;2023-06-22T04:20:31;13.47;;;7.80;;
20743;SDS011;56303;52.160;-0.428;2023-06-22T04:22:59;11.57;;;8.07;;
20743;SDS011;56303;52.160;-0.428;2023-06-22T04:25:25;12.80;;;7.60;;
20743;SDS011;56303;52.160;-0.428;2023-06-22T04:27:53;10.63;;;7.70;;
20743;SDS011;56303;52.160;-0.428;2023-06-22T04:30:20;10.80;;;7.57;;
20743;SDS011;56303;52.160;-0.428;2023-06-22T04:32:46;10.47;;;7.37;;
20743;SDS011;56303;52.160;-0.428;2023-06-22T04:35:25;13.20;;;9.10;;
20743;SDS011;56303;52.160;-0.428;2023-06-22T04:37:55;10.20;;;8.43;;
20743;SDS011;56303;52.160;-0.428;2023-06-22T04:40:24;11.07;;;7.80;;
20743;SDS011;56303;52.160;-0.428;2023-06-22T04:42:51;11.43;;;8.50;;
20743;SDS011;56303;52.160;-0.428;2023-06-22T04:45:21;12.17;;;9.50;;
20743;SDS011;56303;52.160;-0.428;2023-06-22T04:47:48;12.03;;;9.20;;
20743;SDS011;56303;52.160;-0.428;2023-06-22T04:50:16;11.43;;;9.33;;
20743;SDS011;56303;52.160;-0.428;2023-06-22T04:52:44;14.80;;;8.83;;
20743;SDS011;56303;52.160;-0.428;2023-06-22T04:55:12;13.33;;;9.23;;
20743;SDS011;56303;52.160;-0.428;2023-06-22T04:57:41;10.73;;;8.40;;
20743;SDS011;56303;52.160;-0.428;2023-06-22T05:00:11;11.67;;;8.93;;
20743;SDS011;56303;52.160;-0.428;2023-06-22T05:02:39;13.23;;;9.47;;
20743;SDS011;56303;52.160;-0.428;2023-06-22T05:05:07;9.77;;;8.77;;
20743;SDS011;56303;52.160;-0.428;2023-06-22T05:07:35;11.30;;;8.13;;
20743;SDS011;56303;52.160;-0.428;2023-06-22T05:10:02;10.80;;;8.57;;
20743;SDS011;56303;52.160;-0.428;2023-06-22T05:12:31;14.93;;;9.17;;
20743;SDS011;56303;52.160;-0.428;2023-06-22T05:14:58;12.50;;;8.73;;
20743;SDS011;56303;52.160;-0.428;2023-06-22T05:17:25;11.13;;;9.23;;
20743;SDS011;56303;52.160;-0.428;2023-06-22T05:19:52;13.10;;;9.30;;
20743;SDS011;56303;52.160;-0.428;2023-06-22T05:22:19;10.30;;;8.57;;
20743;SDS011;56303;52.160;-0.428;2023-06-22T05:24:46;12.10;;;8.40;;
20743;SDS011;56303;52.160;-0.428;2023-06-22T05:27:13;11.77;;;9.10;;
20743;SDS011;56303;52.160;-0.428;2023-06-22T05:29:41;15.60;;;10.20;;
20743;SDS011;56303;52.160;-0.428;2023-06-22T05:32:09;13.27;;;8.97;;
20743;SDS011;56303;52.160;-0.428;2023-06-22T05:34:36;11.43;;;9.20;;
20743;SDS011;56303;52.160;-0.428;2023-06-22T05:37:03;11.90;;;9.20;;
20743;SDS011;56303;52.160;-0.428;2023-06-22T05:39:30;10.23;;;8.03;;
20743;SDS011;56303;52.160;-0.428;2023-06-22T05:41:57;9.50;;;8.47;;
20743;SDS011;56303;52.160;-0.428;2023-06-22T05:44:24;9.80;;;8.03;;
20743;SDS011;56303;52.160;-0.428;2023-06-22T05:46:51;15.20;;;9.03;;
20743;SDS011;56303;52.160;-0.428;2023-06-22T05:49:18;11.77;;;8.93;;
20743;SDS011;56303;52.160;-0.428;2023-06-22T05:51:45;9.87;;;8.03;;
20743;SDS011;56303;52.160;-0.428;2023-06-22T05:54:12;11.00;;;8.97;;
20743;SDS011;56303;52.160;-0.428;2023-06-22T05:56:40;13.90;;;8.80;;
20743;SDS011;56303;52.160;-0.428;2023-06-22T05:59:07;10.73;;;8.50;;
20743;SDS011;56303;52.160;-0.428;2023-06-22T06:01:34;11.67;;;8.40;;
20743;SDS011;56303;52.160;-0.428;2023-06-22T06:04:02;12.13;;;9.50;;
20743;SDS011;56303;52.160;-0.428;2023-06-22T06:06:34;13.37;;;8.67;;
20743;SDS011;56303;52.160;-0.428;2023-06-22T06:09:04;12.00;;;9.23;;
20743;SDS011;56303;52.160;-0.428;2023-06-22T06:11:31;10.17;;;9.13;;
20743;SDS011;56303;52.160;-0.428;2023-06-22T06:13:57;13.50;;;9.57;;
20743;SDS011;56303;52.160;-0.428;2023-06-22T06:16:24;11.37;;;9.13;;
20743;SDS011;56303;52.160;-0.428;2023-06-22T06:18:51;11.40;;;9.60;;
20743;SDS011;56303;52.160;-0.428;2023-06-22T06:21:20;11.90;;;9.70;;
20743;SDS011;56303;52.160;-0.428;2023-06-22T06:23:48;13.47;;;9.50;;
20743;SDS011;56303;52.160;-0.428;2023-06-22T06:26:15;9.87;;;8.00;;
20743;SDS011;56303;52.160;-0.428;2023-06-22T06:28:43;12.60;;;9.13;;
20743;SDS011;56303;52.160;-0.428;2023-06-22T06:31:10;11.47;;;8.90;;
20743;SDS011;56303;52.160;-0.428;2023-06-22T06:33:38;10.10;;;8.53;;
20743;SDS011;56303;52.160;-0.428;2023-06-22T06:36:05;10.77;;;8.87;;
20743;SDS011;56303;52.160;-0.428;2023-06-22T06:38:34;10.63;;;8.80;;
20743;SDS011;56303;52.160;-0.428;2023-06-22T06:41:01;10.80;;;9.63;;
20743;SDS011;56303;52.160;-0.428;2023-06-22T06:43:28;11.30;;;8.80;;
20743;SDS011;56303;52.160;-0.428;2023-06-22T06:45:55;10.90;;;9.80;;
20743;SDS011;56303;52.160;-0.428;2023-06-22T06:48:22;12.13;;;9.80;;
20743;SDS011;56303;52.160;-0.428;2023-06-22T06:50:49;13.30;;;10.30;;
20743;SDS011;56303;52.160;-0.428;2023-06-22T06:53:16;12.93;;;9.77;;
20743;SDS011;56303;52.160;-0.428;2023-06-22T06:55:43;14.57;;;11.50;;
20743;SDS011;56303;52.160;-0.428;2023-06-22T06:58:11;12.47;;;11.03;;
20743;SDS011;56303;52.160;-0.428;2023-06-22T07:00:39;12.93;;;10.93;;
20743;SDS011;56303;52.160;-0.428;2023-06-22T07:03:06;12.47;;;10.40;;
20743;SDS011;56303;52.160;-0.428;2023-06-22T07:05:33;11.87;;;10.40;;
20743;SDS011;56303;52.160;-0.428;2023-06-22T07:08:01;10.47;;;9.37;;
20743;SDS011;56303;52.160;-0.428;2023-06-22T07:10:28;10.30;;;9.13;;
20743;SDS011;56303;52.160;-0.428;2023-06-22T07:12:57;10.10;;;7.97;;
20743;SDS011;56303;52.160;-0.428;2023-06-22T07:15:24;11.23;;;9.10;;
20743;SDS011;56303;52.160;-0.428;2023-06-22T07:17:51;10.87;;;8.30;;
20743;SDS011;56303;52.160;-0.428;2023-06-22T07:20:18;11.17;;;8.33;;
20743;SDS011;56303;52.160;-0.428;2023-06-22T07:22:46;12.90;;;9.03;;
20743;SDS011;56303;52.160;-0.428;2023-06-22T07:25:13;12.10;;;8.53;;
20743;SDS011;56303;52.160;-0.428;2023-06-22T07:27:46;10.13;;;8.57;;
20743;SDS011;56303;52.160;-0.428;2023-06-22T07:30:24;8.33;;;7.17;;
20743;SDS011;56303;52.160;-0.428;2023-06-22T07:32:51;8.50;;;7.57;;
20743;SDS011;56303;52.160;-0.428;2023-06-22T07:35:18;8.13;;;6.80;;
20743;SDS011;56303;52.160;-0.428;2023-06-22T07:37:45;9.53;;;8.60;;
20743;SDS011;56303;52.160;-0.428;2023-06-22T07:40:12;10.90;;;8.90;;
20743;SDS011;56303;52.160;-0.428;2023-06-22T07:42:39;8.53;;;7.53;;
20743;SDS011;56303;52.160;-0.428;2023-06-22T07:45:06;16.33;;;9.43;;
20743;SDS011;56303;52.160;-0.428;2023-06-22T07:47:34;13.53;;;9.07;;
20743;SDS011;56303;52.160;-0.428;2023-06-22T07:50:02;10.33;;;9.00;;
20743;SDS011;56303;52.160;-0.428;2023-06-22T07:52:30;10.47;;;8.60;;
20743;SDS011;56303;52.160;-0.428;2023-06-22T07:54:58;10.60;;;8.40;;
20743;SDS011;56303;52.160;-0.428;2023-06-22T07:57:25;8.43;;;7.53;;
20743;SDS011;56303;52.160;-0.428;2023-06-22T08:00:03;11.10;;;7.50;;
20743;SDS011;56303;52.160;-0.428;2023-06-22T08:02:42;11.10;;;7.90;;
20743;SDS011;56303;52.160;-0.428;2023-06-22T08:05:11;9.33;;;7.10;;
20743;SDS011;56303;52.160;-0.428;2023-06-22T08:07:47;9.83;;;7.27;;
20743;SDS011;56303;52.160;-0.428;2023-06-22T08:10:15;7.27;;;5.70;;
20743;SDS011;56303;52.160;-0.428;2023-06-22T08:12:43;7.40;;;6.33;;
20743;SDS011;56303;52.160;-0.428;2023-06-22T08:15:10;8.20;;;6.70;;
20743;SDS011;56303;52.160;-0.428;2023-06-22T08:17:39;9.37;;;6.20;;
20743;SDS011;56303;52.160;-0.428;2023-06-22T08:20:07;10.77;;;5.97;;
20743;SDS011;56303;52.160;-0.428;2023-06-22T08:22:39;7.30;;;5.72;;
20743;SDS011;56303;52.160;-0.428;2023-06-22T08:25:07;8.20;;;6.07;;
20743;SDS011;56303;52.160;-0.428;2023-06-22T08:27:35;7.78;;;5.47;;
20743;SDS011;56303;52.160;-0.428;2023-06-22T08:30:02;9.00;;;6.50;;
20743;SDS011;56303;52.160;-0.428;2023-06-22T08:32:30;7.60;;;6.80;;
20743;SDS011;56303;52.160;-0.428;2023-06-22T08:34:59;8.10;;;5.95;;
20743;SDS011;56303;52.160;-0.428;2023-06-22T08:37:26;8.25;;;5.70;;
20743;SDS011;56303;52.160;-0.428;2023-06-22T08:40:01;6.82;;;5.47;;
20743;SDS011;56303;52.160;-0.428;2023-06-22T08:42:37;7.60;;;6.05;;
20743;SDS011;56303;52.160;-0.428;2023-06-22T08:45:04;6.03;;;4.63;;
20743;SDS011;56303;52.160;-0.428;2023-06-22T08:47:32;5.60;;;4.50;;
20743;SDS011;56303;52.160;-0.428;2023-06-22T08:50:00;7.93;;;5.35;;
20743;SDS011;56303;52.160;-0.428;2023-06-22T08:52:29;7.68;;;4.93;;
20743;SDS011;56303;52.160;-0.428;2023-06-22T08:54:56;6.40;;;5.50;;
20743;SDS011;56303;52.160;-0.428;2023-06-22T08:57:27;6.57;;;4.93;;
20743;SDS011;56303;52.160;-0.428;2023-06-22T08:59:54;6.72;;;4.60;;
20743;SDS011;56303;52.160;-0.428;2023-06-22T09:02:25;6.68;;;5.05;;
20743;SDS011;56303;52.160;-0.428;2023-06-22T09:04:57;5.30;;;4.22;;
20743;SDS011;56303;52.160;-0.428;2023-06-22T09:07:25;6.78;;;4.18;;
20743;SDS011;56303;52.160;-0.428;2023-06-22T09:09:52;5.45;;;4.30;;
20743;SDS011;56303;52.160;-0.428;2023-06-22T09:12:20;6.85;;;4.80;;
20743;SDS011;56303;52.160;-0.428;2023-06-22T09:14:51;7.07;;;4.32;;
20743;SDS011;56303;52.160;-0.428;2023-06-22T09:17:18;5.85;;;4.65;;
20743;SDS011;56303;52.160;-0.428;2023-06-22T09:19:45;7.53;;;5.10;;
20743;SDS011;56303;52.160;-0.428;2023-06-22T09:22:14;7.75;;;4.90;;
20743;SDS011;56303;52.160;-0.428;2023-06-22T09:24:41;7.28;;;4.65;;
20743;SDS011;56303;52.160;-0.428;2023-06-22T09:27:08;4.90;;;4.40;;
20743;SDS011;56303;52.160;-0.428;2023-06-22T09:29:35;5.25;;;4.68;;
20743;SDS011;56303;52.160;-0.428;2023-06-22T09:32:03;6.90;;;4.50;;
20743;SDS011;56303;52.160;-0.428;2023-06-22T09:34:30;7.28;;;4.78;;
20743;SDS011;56303;52.160;-0.428;2023-06-22T09:36:57;6.57;;;4.10;;
20743;SDS011;56303;52.160;-0.428;2023-06-22T09:39:26;5.93;;;4.30;;
20743;SDS011;56303;52.160;-0.428;2023-06-22T09:41:53;5.68;;;4.35;;
20743;SDS011;56303;52.160;-0.428;2023-06-22T09:44:20;6.15;;;4.30;;
20743;SDS011;56303;52.160;-0.428;2023-06-22T09:46:47;5.53;;;3.95;;
20743;SDS011;56303;52.160;-0.428;2023-06-22T09:49:14;5.85;;;4.35;;
20743;SDS011;56303;52.160;-0.428;2023-06-22T09:51:41;10.05;;;4.68;;
20743;SDS011;56303;52.160;-0.428;2023-06-22T09:54:07;5.65;;;4.43;;
20743;SDS011;56303;52.160;-0.428;2023-06-22T09:56:34;7.55;;;4.70;;
20743;SDS011;56303;52.160;-0.428;2023-06-22T09:59:03;8.55;;;5.22;;
20743;SDS011;56303;52.160;-0.428;2023-06-22T10:01:44;6.85;;;4.50;;
20743;SDS011;56303;52.160;-0.428;2023-06-22T10:04:11;7.75;;;4.15;;
20743;SDS011;56303;52.160;-0.428;2023-06-22T10:06:38;5.43;;;3.85;;
20743;SDS011;56303;52.160;-0.428;2023-06-22T10:09:07;6.95;;;4.75;;
20743;SDS011;56303;52.160;-0.428;2023-06-22T10:11:34;6.25;;;4.38;;
20743;SDS011;56303;52.160;-0.428;2023-06-22T10:14:01;4.60;;;3.70;;
20743;SDS011;56303;52.160;-0.428;2023-06-22T10:16:30;7.22;;;4.55;;
20743;SDS011;56303;52.160;-0.428;2023-06-22T10:18:58;5.55;;;4.25;;
20743;SDS011;56303;52.160;-0.428;2023-06-22T10:21:26;8.52;;;4.18;;
20743;SDS011;56303;52.160;-0.428;2023-06-22T10:23:54;4.82;;;3.88;;
20743;SDS011;56303;52.160;-0.428;2023-06-22T10:26:22;6.10;;;4.63;;
20743;SDS011;56303;52.160;-0.428;2023-06-22T10:28:49;5.68;;;3.63;;
20743;SDS011;56303;52.160;-0.428;2023-06-22T10:31:25;4.57;;;3.92;;
20743;SDS011;56303;52.160;-0.428;2023-06-22T10:33:54;5.30;;;3.83;;
20743;SDS011;56303;52.160;-0.428;2023-06-22T10:36:21;4.47;;;3.70;;
20743;SDS011;56303;52.160;-0.428;2023-06-22T10:38:49;6.25;;;3.95;;
20743;SDS011;56303;52.160;-0.428;2023-06-22T10:41:16;4.88;;;3.85;;
20743;SDS011;56303;52.160;-0.428;2023-06-22T10:43:43;6.63;;;4.60;;
20743;SDS011;56303;52.160;-0.428;2023-06-22T10:46:10;8.80;;;4.88;;
20743;SDS011;56303;52.160;-0.428;2023-06-22T10:48:37;6.47;;;4.53;;
20743;SDS011;56303;52.160;-0.428;2023-06-22T10:51:04;5.90;;;4.10;;
20743;SDS011;56303;52.160;-0.428;2023-06-22T10:53:31;6.45;;;4.38;;
20743;SDS011;56303;52.160;-0.428;2023-06-22T10:55:58;5.38;;;4.22;;
20743;SDS011;56303;52.160;-0.428;2023-06-22T10:58:25;5.65;;;4.38;;
20743;SDS011;56303;52.160;-0.428;2023-06-22T11:00:53;5.57;;;4.03;;
20743;SDS011;56303;52.160;-0.428;2023-06-22T11:03:19;5.63;;;4.80;;
20743;SDS011;56303;52.160;-0.428;2023-06-22T11:05:46;8.10;;;3.97;;
20743;SDS011;56303;52.160;-0.428;2023-06-22T11:08:14;4.70;;;4.20;;
20743;SDS011;56303;52.160;-0.428;2023-06-22T11:10:41;6.05;;;3.90;;
20743;SDS011;56303;52.160;-0.428;2023-06-22T11:13:08;6.13;;;3.78;;
20743;SDS011;56303;52.160;-0.428;2023-06-22T11:15:38;5.43;;;4.20;;
20743;SDS011;56303;52.160;-0.428;2023-06-22T11:18:05;7.30;;;4.70;;
20743;SDS011;56303;52.160;-0.428;2023-06-22T11:20:33;5.40;;;4.47;;
20743;SDS011;56303;52.160;-0.428;2023-06-22T11:23:05;5.57;;;4.65;;
20743;SDS011;56303;52.160;-0.428;2023-06-22T11:25:33;6.30;;;3.88;;
20743;SDS011;56303;52.160;-0.428;2023-06-22T11:28:02;5.72;;;4.18;;
20743;SDS011;56303;52.160;-0.428;2023-06-22T11:30:29;5.78;;;4.13;;
20743;SDS011;56303;52.160;-0.428;2023-06-22T11:32:58;5.75;;;4.63;;
20743;SDS011;56303;52.160;-0.428;2023-06-22T11:35:26;6.28;;;4.68;;
20743;SDS011;56303;52.160;-0.428;2023-06-22T11:37:53;5.43;;;4.28;;
20743;SDS011;56303;52.160;-0.428;2023-06-22T11:40:19;5.35;;;3.95;;
20743;SDS011;56303;52.160;-0.428;2023-06-22T11:42:46;5.82;;;4.35;;
20743;SDS011;56303;52.160;-0.428;2023-06-22T11:45:13;6.78;;;4.25;;
20743;SDS011;56303;52.160;-0.428;2023-06-22T11:47:40;6.68;;;4.05;;
20743;SDS011;56303;52.160;-0.428;2023-06-22T11:50:07;5.00;;;3.95;;
20743;SDS011;56303;52.160;-0.428;2023-06-22T11:52:34;5.47;;;4.05;;
20743;SDS011;56303;52.160;-0.428;2023-06-22T11:55:06;5.38;;;4.60;;
20743;SDS011;56303;52.160;-0.428;2023-06-22T11:57:35;5.45;;;4.20;;
20743;SDS011;56303;52.160;-0.428;2023-06-22T12:00:03;5.32;;;4.47;;
20743;SDS011;56303;52.160;-0.428;2023-06-22T12:02:55;6.82;;;4.63;;
20743;SDS011;56303;52.160;-0.428;2023-06-22T12:05:26;7.72;;;4.55;;
20743;SDS011;56303;52.160;-0.428;2023-06-22T12:07:53;5.30;;;4.57;;
20743;SDS011;56303;52.160;-0.428;2023-06-22T12:10:22;4.93;;;4.40;;
20743;SDS011;56303;52.160;-0.428;2023-06-22T12:12:49;5.53;;;4.47;;
20743;SDS011;56303;52.160;-0.428;2023-06-22T12:15:16;5.32;;;4.00;;
20743;SDS011;56303;52.160;-0.428;2023-06-22T12:17:43;5.90;;;4.07;;
20743;SDS011;56303;52.160;-0.428;2023-06-22T12:20:10;7.95;;;4.30;;
20743;SDS011;56303;52.160;-0.428;2023-06-22T12:22:37;4.43;;;3.63;;
20743;SDS011;56303;52.160;-0.428;2023-06-22T12:25:04;6.78;;;3.90;;
20743;SDS011;56303;52.160;-0.428;2023-06-22T12:27:31;4.55;;;4.10;;
20743;SDS011;56303;52.160;-0.428;2023-06-22T12:29:58;4.00;;;3.22;;
20743;SDS011;56303;52.160;-0.428;2023-06-22T12:32:25;4.63;;;3.67;;
20743;SDS011;56303;52.160;-0.428;2023-06-22T12:34:52;5.70;;;4.03;;
20743;SDS011;56303;52.160;-0.428;2023-06-22T12:37:19;4.97;;;4.03;;
20743;SDS011;56303;52.160;-0.428;2023-06-22T12:39:46;5.40;;;3.85;;
20743;SDS011;56303;52.160;-0.428;2023-06-22T12:42:13;5.93;;;3.88;;
20743;SDS011;56303;52.160;-0.428;2023-06-22T12:44:40;4.10;;;3.60;;
20743;SDS011;56303;52.160;-0.428;2023-06-22T12:47:07;4.75;;;3.72;;
20743;SDS011;56303;52.160;-0.428;2023-06-22T12:49:35;5.53;;;4.03;;
20743;SDS011;56303;52.160;-0.428;2023-06-22T12:52:02;4.88;;;3.53;;
20743;SDS011;56303;52.160;-0.428;2023-06-22T12:54:29;5.00;;;4.15;;
20743;SDS011;56303;52.160;-0.428;2023-06-22T12:57:02;5.22;;;3.75;;
20743;SDS011;56303;52.160;-0.428;2023-06-22T12:59:29;4.68;;;3.38;;
20743;SDS011;56303;52.160;-0.428;2023-06-22T13:01:56;5.03;;;3.30;;
20743;SDS011;56303;52.160;-0.428;2023-06-22T13:04:23;4.63;;;3.38;;
20743;SDS011;56303;52.160;-0.428;2023-06-22T13:06:50;4.45;;;3.60;;
20743;SDS011;56303;52.160;-0.428;2023-06-22T13:09:18;4.07;;;3.15;;
20743;SDS011;56303;52.160;-0.428;2023-06-22T13:11:47;4.35;;;3.22;;
20743;SDS011;56303;52.160;-0.428;2023-06-22T13:14:14;3.80;;;3.00;;
20743;SDS011;56303;52.160;-0.428;2023-06-22T13:16:42;5.07;;;3.78;;
20743;SDS011;56303;52.160;-0.428;2023-06-22T13:19:09;6.32;;;3.55;;
20743;SDS011;56303;52.160;-0.428;2023-06-22T13:21:36;5.57;;;3.60;;
20743;SDS011;56303;52.160;-0.428;2023-06-22T13:24:03;5.95;;;3.50;;
20743;SDS011;56303;52.160;-0.428;2023-06-22T13:26:32;4.15;;;3.75;;
20743;SDS011;56303;52.160;-0.428;2023-06-22T13:28:59;6.47;;;3.10;;
20743;SDS011;56303;52.160;-0.428;2023-06-22T13:31:26;5.45;;;3.47;;
20743;SDS011;56303;52.160;-0.428;2023-06-22T13:33:53;3.45;;;2.90;;
20743;SDS011;56303;52.160;-0.428;2023-06-22T13:36:20;4.32;;;3.30;;
20743;SDS011;56303;52.160;-0.428;2023-06-22T13:38:49;5.78;;;3.75;;
20743;SDS011;56303;52.160;-0.428;2023-06-22T13:41:16;3.22;;;2.92;;
20743;SDS011;56303;52.160;-0.428;2023-06-22T13:43:43;8.57;;;4.15;;
20743;SDS011;56303;52.160;-0.428;2023-06-22T13:46:10;4.93;;;3.40;;
20743;SDS011;56303;52.160;-0.428;2023-06-22T13:48:37;4.60;;;2.97;;
20743;SDS011;56303;52.160;-0.428;2023-06-22T13:51:04;5.65;;;4.07;;
20743;SDS011;56303;52.160;-0.428;2023-06-22T13:53:31;5.38;;;3.35;;
20743;SDS011;56303;52.160;-0.428;2023-06-22T13:55:57;4.35;;;3.35;;
20743;SDS011;56303;52.160;-0.428;2023-06-22T13:58:24;4.07;;;3.15;;
20743;SDS011;56303;52.160;-0.428;2023-06-22T14:00:51;5.55;;;3.22;;
20743;SDS011;56303;52.160;-0.428;2023-06-22T14:03:21;4.75;;;3.63;;
20743;SDS011;56303;52.160;-0.428;2023-06-22T14:05:48;4.40;;;2.92;;
20743;SDS011;56303;52.160;-0.428;2023-06-22T14:08:15;4.93;;;3.67;;
20743;SDS011;56303;52.160;-0.428;2023-06-22T14:10:45;5.72;;;3.53;;
20743;SDS011;56303;52.160;-0.428;2023-06-22T14:13:12;3.97;;;3.45;;
20743;SDS011;56303;52.160;-0.428;2023-06-22T14:15:38;5.97;;;3.63;;
20743;SDS011;56303;52.160;-0.428;2023-06-22T14:18:05;5.72;;;4.10;;
20743;SDS011;56303;52.160;-0.428;2023-06-22T14:20:32;7.72;;;4.35;;
20743;SDS011;56303;52.160;-0.428;2023-06-22T14:22:59;5.45;;;4.00;;
20743;SDS011;56303;52.160;-0.428;2023-06-22T14:25:26;6.38;;;4.15;;
20743;SDS011;56303;52.160;-0.428;2023-06-22T14:27:53;4.63;;;3.92;;
20743;SDS011;56303;52.160;-0.428;2023-06-22T14:30:19;6.10;;;3.92;;
20743;SDS011;56303;52.160;-0.428;2023-06-22T14:32:46;4.75;;;4.07;;
20743;SDS011;56303;52.160;-0.428;2023-06-22T14:35:13;5.30;;;3.38;;
20743;SDS011;56303;52.160;-0.428;2023-06-22T14:37:45;5.13;;;4.05;;
20743;SDS011;56303;52.160;-0.428;2023-06-22T14:40:12;5.88;;;3.83;;
20743;SDS011;56303;52.160;-0.428;2023-06-22T14:42:39;4.57;;;3.45;;
20743;SDS011;56303;52.160;-0.428;2023-06-22T14:45:06;6.60;;;3.50;;
20743;SDS011;56303;52.160;-0.428;2023-06-22T14:47:33;5.20;;;3.60;;
20743;SDS011;56303;52.160;-0.428;2023-06-22T14:50:00;6.57;;;3.70;;